createdAt,value
2023-01-13T00:01:27.335Z,0.76
2023-01-13T00:04:55.181Z,0.66
2023-01-13T00:08:20.033Z,0.98
2023-01-13T00:11:46.061Z,0.87
2023-01-13T00:15:11.883Z,0.69
2023-01-13T00:18:38.735Z,0.87
2023-01-13T00:22:05.076Z,1.14
2023-01-13T00:25:30.623Z,1.18
2023-01-13T00:28:59.495Z,1.33
2023-01-13T00:32:25.729Z,1.10
2023-01-13T00:35:59.128Z,1.06
2023-01-13T00:39:25.841Z,1.01
2023-01-13T00:43:07.983Z,1.25
2023-01-13T00:46:33.867Z,1.30
2023-01-13T00:49:59.618Z,1.40
2023-01-13T00:53:25.122Z,1.08
2023-01-13T00:56:52.117Z,1.32
2023-01-13T01:00:18.851Z,1.36
2023-01-13T01:03:44.801Z,1.49
2023-01-13T01:07:10.815Z,1.56
2023-01-13T01:10:36.048Z,1.85
2023-01-13T01:14:04.526Z,2.34
2023-01-13T01:17:30.743Z,2.27
2023-01-13T01:20:57.287Z,2.16
2023-01-13T01:24:21.977Z,1.83
2023-01-13T01:27:47.459Z,2.19
2023-01-13T01:31:15.724Z,1.91
2023-01-13T01:34:41.613Z,1.77
2023-01-13T01:38:06.962Z,1.82
2023-01-13T01:41:33.896Z,1.65
2023-01-13T01:45:02.034Z,1.74
2023-01-13T01:48:29.441Z,1.92
2023-01-13T01:51:56.781Z,1.95
2023-01-13T01:55:23.008Z,1.97
2023-01-13T01:58:51.607Z,1.64
2023-01-13T02:02:18.859Z,1.60
2023-01-13T02:05:46.366Z,1.95
2023-01-13T02:09:11.863Z,2.04
2023-01-13T02:12:37.679Z,1.69
2023-01-13T02:16:08.661Z,1.72
2023-01-13T02:20:04.548Z,1.88
2023-01-13T02:24:44.109Z,1.79
2023-01-13T02:28:26.105Z,1.95
2023-01-13T02:31:51.391Z,1.90
2023-01-13T02:35:20.011Z,1.68
2023-01-13T02:38:50.904Z,1.86
2023-01-13T02:42:38.081Z,2.01
2023-01-13T02:46:04.196Z,2.04
2023-01-13T02:49:36.083Z,2.03
2023-01-13T02:53:01.891Z,2.01
2023-01-13T02:56:27.662Z,1.98
2023-01-13T02:59:53.144Z,2.37
2023-01-13T03:03:19.687Z,2.14
2023-01-13T03:06:51.037Z,2.23
2023-01-13T03:10:22.497Z,2.47
2023-01-13T03:14:10.300Z,2.32
2023-01-13T03:17:40.058Z,2.04
2023-01-13T03:21:07.624Z,2.19
2023-01-13T03:24:37.544Z,2.03
2023-01-13T03:28:03.922Z,2.04
2023-01-13T03:31:31.451Z,1.97
2023-01-13T03:34:59.953Z,1.99
2023-01-13T03:38:30.757Z,2.05
2023-01-13T03:42:00.498Z,2.27
2023-01-13T03:45:25.771Z,2.46
2023-01-13T03:48:50.663Z,2.17
2023-01-13T03:52:18.892Z,2.19
2023-01-13T03:55:45.297Z,2.34
2023-01-13T03:59:14.947Z,2.04
2023-01-13T04:02:47.418Z,1.97
2023-01-13T04:06:16.886Z,2.15
2023-01-13T04:09:44.718Z,1.88
2023-01-13T04:13:10.640Z,1.97
2023-01-13T04:16:37.809Z,2.00
2023-01-13T04:20:08.018Z,1.94
2023-01-13T04:23:33.346Z,1.66
2023-01-13T04:26:59.469Z,1.79
2023-01-13T04:30:23.862Z,1.88
2023-01-13T04:33:50.817Z,1.94
2023-01-13T04:37:16.436Z,2.15
2023-01-13T04:40:41.753Z,2.06
2023-01-13T04:44:06.345Z,1.82
2023-01-13T04:47:31.912Z,1.74
2023-01-13T04:50:58.306Z,2.10
2023-01-13T04:54:24.712Z,2.18
2023-01-13T04:57:50.365Z,2.26
2023-01-13T05:01:16.017Z,2.06
2023-01-13T05:04:48.176Z,2.22
2023-01-13T05:08:15.150Z,2.19
2023-01-13T05:11:57.121Z,2.06
2023-01-13T05:15:39.570Z,2.09
2023-01-13T05:19:05.456Z,2.03
2023-01-13T05:22:48.189Z,2.29
2023-01-13T05:26:15.162Z,2.15
2023-01-13T05:29:40.349Z,2.33
2023-01-13T05:33:05.461Z,2.34
2023-01-13T05:36:31.491Z,2.21
2023-01-13T05:40:13.176Z,2.07
2023-01-13T05:43:39.802Z,2.21
2023-01-13T05:47:04.700Z,2.44
2023-01-13T05:50:30.355Z,2.07
2023-01-13T05:54:02.867Z,2.17
2023-01-13T05:57:29.585Z,2.20
2023-01-13T06:00:56.065Z,1.99
2023-01-13T06:04:22.206Z,1.93
2023-01-13T06:07:49.513Z,1.75
2023-01-13T06:11:15.130Z,1.75
2023-01-13T06:14:42.284Z,1.78
2023-01-13T06:18:18.466Z,1.80
2023-01-13T06:21:46.849Z,1.93
2023-01-13T06:25:15.844Z,1.73
2023-01-13T06:28:41.875Z,1.86
2023-01-13T06:32:08.760Z,1.83
2023-01-13T06:35:36.734Z,1.75
2023-01-13T06:39:02.554Z,1.66
2023-01-13T06:42:45.194Z,1.67
2023-01-13T06:46:11.995Z,1.69
2023-01-13T06:49:37.206Z,1.80
2023-01-13T06:53:04.061Z,1.77
2023-01-13T06:56:31.550Z,1.89
2023-01-13T06:59:57.347Z,1.88
2023-01-13T07:03:22.965Z,1.93
2023-01-13T07:06:49.258Z,1.90
2023-01-13T07:10:23.025Z,1.73
2023-01-13T07:14:07.684Z,1.92
2023-01-13T07:17:32.721Z,1.87
2023-01-13T07:20:59.531Z,1.91
2023-01-13T07:24:24.647Z,2.03
2023-01-13T07:27:51.910Z,1.92
2023-01-13T07:31:19.905Z,1.91
2023-01-13T07:34:47.223Z,1.85
2023-01-13T07:38:12.410Z,1.91
2023-01-13T07:41:54.905Z,1.90
2023-01-13T07:45:21.114Z,1.84
2023-01-13T07:48:46.605Z,1.87
2023-01-13T07:52:11.320Z,1.82
2023-01-13T07:55:36.887Z,1.81
2023-01-13T07:59:02.675Z,1.92
2023-01-13T08:02:30.179Z,1.75
2023-01-13T08:05:56.581Z,1.94
2023-01-13T08:09:21.680Z,2.10
2023-01-13T08:13:04.299Z,2.00
2023-01-13T08:16:29.037Z,2.24
2023-01-13T08:19:56.589Z,2.16
2023-01-13T08:23:21.546Z,2.25
2023-01-13T08:26:48.123Z,2.24
2023-01-13T08:30:14.765Z,2.36
2023-01-13T08:33:42.540Z,2.13
2023-01-13T08:37:10.721Z,2.36
2023-01-13T08:40:37.998Z,2.32
2023-01-13T08:44:03.279Z,2.55
2023-01-13T08:47:30.054Z,2.44
2023-01-13T08:50:55.386Z,2.52
2023-01-13T08:54:23.237Z,2.33
2023-01-13T08:57:48.901Z,2.57
2023-01-13T09:01:14.877Z,2.40
2023-01-13T09:04:40.349Z,2.62
2023-01-13T09:08:06.317Z,2.50
2023-01-13T09:11:54.149Z,2.38
2023-01-13T09:15:20.805Z,2.04
2023-01-13T09:18:45.811Z,2.19
2023-01-13T09:22:13.270Z,2.08
2023-01-13T09:25:39.040Z,2.20
2023-01-13T09:29:06.153Z,2.12
2023-01-13T09:32:31.355Z,2.21
2023-01-13T09:36:01.926Z,2.06
2023-01-13T09:39:27.113Z,2.23
2023-01-13T09:43:12.492Z,2.19
2023-01-13T09:46:48.165Z,2.37
2023-01-13T09:50:25.550Z,2.33
2023-01-13T09:53:56.826Z,2.06
2023-01-13T09:57:23.242Z,1.98
2023-01-13T10:00:51.933Z,2.09
2023-01-13T10:04:19.454Z,1.95
2023-01-13T10:07:48.604Z,2.12
2023-01-13T10:11:34.151Z,2.21
2023-01-13T10:14:59.508Z,2.45
2023-01-13T10:18:28.234Z,2.45
2023-01-13T10:22:09.404Z,2.48
2023-01-13T10:25:40.328Z,2.42
2023-01-13T10:29:05.358Z,2.38
2023-01-13T10:32:31.365Z,2.83
2023-01-13T10:36:01.088Z,2.97
2023-01-13T10:39:30.389Z,2.50
2023-01-13T10:43:08.387Z,2.92
2023-01-13T10:46:36.339Z,2.85
2023-01-13T10:50:12.868Z,2.94
2023-01-13T10:54:04.798Z,3.06
2023-01-13T10:57:33.928Z,2.79
2023-01-13T11:01:02.548Z,3.12
2023-01-13T11:04:33.218Z,2.97
2023-01-13T11:07:58.964Z,2.90
2023-01-13T11:11:40.447Z,3.04
2023-01-13T11:15:09.810Z,3.24
2023-01-13T11:18:42.025Z,3.58
2023-01-13T11:22:08.756Z,3.22
2023-01-13T11:25:42.277Z,3.49
2023-01-13T11:29:13.019Z,3.66
2023-01-13T11:32:42.745Z,3.59
2023-01-13T11:36:12.189Z,3.72
2023-01-13T11:39:44.842Z,3.48
2023-01-13T11:43:15.043Z,3.88
2023-01-13T11:46:40.622Z,4.02
2023-01-13T11:50:15.526Z,3.68
2023-01-13T11:54:00.341Z,3.49
2023-01-13T11:57:51.327Z,3.56
2023-01-13T12:01:27.601Z,3.60
2023-01-13T12:04:59.844Z,3.46
2023-01-13T12:08:30.593Z,3.45
2023-01-13T12:12:23.654Z,3.60
2023-01-13T12:16:20.749Z,3.60
2023-01-13T12:19:47.481Z,3.55
2023-01-13T12:23:16.061Z,3.63
2023-01-13T12:26:45.058Z,3.51
2023-01-13T12:30:20.607Z,3.77
2023-01-13T12:33:51.254Z,3.40
2023-01-13T12:37:19.535Z,3.39
2023-01-13T12:40:57.396Z,3.39
2023-01-13T12:44:22.743Z,3.37
2023-01-13T12:47:49.102Z,3.29
2023-01-13T12:51:24.052Z,3.55
2023-01-13T12:55:21.727Z,3.43
2023-01-13T12:58:47.350Z,3.41
2023-01-13T13:02:35.438Z,3.63
2023-01-13T13:06:10.911Z,3.58
2023-01-13T13:09:39.312Z,3.54
2023-01-13T13:13:22.670Z,3.59
2023-01-13T13:16:50.673Z,3.56
2023-01-13T13:20:56.180Z,3.55
2023-01-13T13:24:26.509Z,3.59
2023-01-13T13:27:56.957Z,3.84
2023-01-13T13:31:29.029Z,3.76
2023-01-13T13:34:59.139Z,3.70
2023-01-13T13:38:50.463Z,3.76
2023-01-13T13:42:35.440Z,3.68
2023-01-13T13:46:18.262Z,3.92
2023-01-13T13:49:45.218Z,4.16
2023-01-13T13:53:12.069Z,4.31
2023-01-13T13:56:43.332Z,4.32
2023-01-13T14:00:21.557Z,4.38
2023-01-13T14:03:47.664Z,4.24
2023-01-13T14:07:19.127Z,4.17
2023-01-13T14:10:45.834Z,4.04
2023-01-13T14:14:21.919Z,4.09
2023-01-13T14:17:49.047Z,4.33
2023-01-13T14:21:21.029Z,4.10
2023-01-13T14:24:49.908Z,4.33
2023-01-13T14:28:26.176Z,4.12
2023-01-13T14:31:53.125Z,4.27
2023-01-13T14:35:20.490Z,4.21
2023-01-13T14:38:46.828Z,4.38
2023-01-13T14:42:15.925Z,4.29
2023-01-13T14:45:41.538Z,4.35
2023-01-13T14:49:14.126Z,4.44
2023-01-13T14:52:50.907Z,4.49
2023-01-13T14:56:47.861Z,4.38
2023-01-13T15:00:22.900Z,4.34
2023-01-13T15:03:51.388Z,4.34
2023-01-13T15:07:23.445Z,4.28
2023-01-13T15:10:55.117Z,4.30
2023-01-13T15:14:23.759Z,4.32
2023-01-13T15:17:48.817Z,4.35
2023-01-13T15:21:14.331Z,4.36
2023-01-13T15:24:42.207Z,4.35
2023-01-13T15:28:10.193Z,4.39
2023-01-13T15:31:36.144Z,4.29
2023-01-13T15:35:02.348Z,4.33
2023-01-13T15:38:27.459Z,4.26
2023-01-13T15:42:10.583Z,4.24
2023-01-13T15:45:57.113Z,4.22
2023-01-13T15:49:26.005Z,4.13
2023-01-13T15:52:53.445Z,4.06
2023-01-13T15:56:22.773Z,4.14
2023-01-13T15:59:51.487Z,4.21
2023-01-13T16:03:18.914Z,4.26
2023-01-13T16:06:45.285Z,4.32
2023-01-13T16:10:17.570Z,4.11
2023-01-13T16:13:43.068Z,4.23
2023-01-13T16:17:15.664Z,4.29
2023-01-13T16:20:43.057Z,4.38
2023-01-13T16:24:08.024Z,4.46
2023-01-13T16:27:33.861Z,4.53
2023-01-13T16:30:58.254Z,4.60
2023-01-13T16:34:23.855Z,4.62
2023-01-13T16:38:04.882Z,4.44
2023-01-13T16:41:30.702Z,4.50
2023-01-13T16:44:55.439Z,4.63
2023-01-13T16:48:23.594Z,4.51
2023-01-13T16:51:49.219Z,4.33
2023-01-13T16:55:16.378Z,4.41
2023-01-13T16:58:42.206Z,4.45
2023-01-13T17:02:08.254Z,4.32
2023-01-13T17:05:33.861Z,4.51
2023-01-13T17:09:04.323Z,4.43
2023-01-13T17:12:30.987Z,4.32
2023-01-13T17:15:56.353Z,4.29
2023-01-13T17:19:21.981Z,4.28
2023-01-13T17:22:52.132Z,4.44
2023-01-13T17:26:30.115Z,4.37
2023-01-13T17:29:57.377Z,4.32
2023-01-13T17:33:22.283Z,4.32
2023-01-13T17:36:48.312Z,4.18
2023-01-13T17:40:15.572Z,4.34
2023-01-13T17:43:41.600Z,4.26
2023-01-13T17:47:10.294Z,4.21
2023-01-13T17:50:36.097Z,4.37
2023-01-13T17:54:01.469Z,4.24
2023-01-13T17:57:28.230Z,4.22
2023-01-13T18:00:53.931Z,4.36
2023-01-13T18:04:23.655Z,4.33
2023-01-13T18:07:49.467Z,4.16
2023-01-13T18:11:16.490Z,4.16
2023-01-13T18:14:44.675Z,4.23
2023-01-13T18:18:11.317Z,4.16
2023-01-13T18:21:54.933Z,4.21
2023-01-13T18:25:38.097Z,4.38
2023-01-13T18:29:03.309Z,4.38
2023-01-13T18:32:33.183Z,4.24
2023-01-13T18:36:06.422Z,4.47
2023-01-13T18:39:33.568Z,4.41
2023-01-13T18:42:59.826Z,4.67
2023-01-13T18:46:26.567Z,4.66
2023-01-13T18:49:52.317Z,5.04
2023-01-13T18:53:20.153Z,4.95
2023-01-13T18:56:48.023Z,5.02
2023-01-13T19:00:17.280Z,5.37
2023-01-13T19:03:43.570Z,5.25
2023-01-13T19:07:13.511Z,5.20
2023-01-13T19:10:39.323Z,5.48
2023-01-13T19:14:07.191Z,5.78
2023-01-13T19:17:35.178Z,5.74
2023-01-13T19:21:04.913Z,5.69
2023-01-13T19:24:30.508Z,5.54
2023-01-13T19:27:56.340Z,5.26
2023-01-13T19:31:24.023Z,5.18
2023-01-13T19:34:51.874Z,5.16
2023-01-13T19:38:18.629Z,5.20
2023-01-13T19:42:02.784Z,5.23
2023-01-13T19:45:29.352Z,4.83
2023-01-13T19:48:58.220Z,5.12
2023-01-13T19:52:23.635Z,5.26
2023-01-13T19:55:50.792Z,5.21
2023-01-13T19:59:23.150Z,5.50
2023-01-13T20:02:50.263Z,5.65
2023-01-13T20:06:19.543Z,5.60
2023-01-13T20:09:49.984Z,5.77
2023-01-13T20:13:15.599Z,5.61
2023-01-13T20:16:41.914Z,5.50
2023-01-13T20:20:09.292Z,5.59
2023-01-13T20:23:39.211Z,5.13
2023-01-13T20:27:08.010Z,5.64
2023-01-13T20:30:35.795Z,5.72
2023-01-13T20:34:02.316Z,5.43
2023-01-13T20:37:27.944Z,5.28
2023-01-13T20:41:22.656Z,5.59
2023-01-13T20:44:49.183Z,4.98
2023-01-13T20:48:15.637Z,5.60
2023-01-13T20:51:44.289Z,5.18
2023-01-13T20:55:14.150Z,5.78
2023-01-13T20:58:42.597Z,5.94
2023-01-13T21:02:08.551Z,6.10
2023-01-13T21:05:34.475Z,5.70
2023-01-13T21:09:00.612Z,5.50
2023-01-13T21:12:42.311Z,5.28
2023-01-13T21:16:11.321Z,5.28
2023-01-13T21:19:36.836Z,5.49
2023-01-13T21:23:04.499Z,5.58
2023-01-13T21:26:29.805Z,5.37
2023-01-13T21:29:55.123Z,5.33
2023-01-13T21:33:22.483Z,5.20
2023-01-13T21:36:48.209Z,5.03
2023-01-13T21:40:14.757Z,4.98
2023-01-13T21:43:57.474Z,5.26
2023-01-13T21:47:39.585Z,5.47
2023-01-13T21:51:07.863Z,5.22
2023-01-13T21:54:32.769Z,5.38
2023-01-13T21:57:58.804Z,5.06
2023-01-13T22:01:23.913Z,5.12
2023-01-13T22:04:49.456Z,4.90
2023-01-13T22:08:17.650Z,4.80
2023-01-13T22:11:43.439Z,5.15
2023-01-13T22:15:09.059Z,5.00
2023-01-13T22:18:35.391Z,4.71
2023-01-13T22:22:00.506Z,4.79
2023-01-13T22:25:27.967Z,4.83
2023-01-13T22:28:52.759Z,4.81
2023-01-13T22:32:18.999Z,4.80
2023-01-13T22:35:43.868Z,4.90
2023-01-13T22:39:09.328Z,4.85
2023-01-13T22:42:39.138Z,4.59
2023-01-13T22:46:06.975Z,4.66
2023-01-13T22:49:32.586Z,4.71
2023-01-13T22:52:58.628Z,4.72
2023-01-13T22:56:24.592Z,5.16
2023-01-13T22:59:52.897Z,4.97
2023-01-13T23:03:17.899Z,5.15
2023-01-13T23:06:43.817Z,5.34
2023-01-13T23:10:13.123Z,5.36
2023-01-13T23:13:38.695Z,5.22
2023-01-13T23:17:08.054Z,5.42
2023-01-13T23:20:33.881Z,5.59
2023-01-13T23:23:59.034Z,5.34
2023-01-13T23:27:24.607Z,5.56
2023-01-13T23:30:49.877Z,5.48
2023-01-13T23:34:16.555Z,5.54
2023-01-13T23:37:40.950Z,5.86
2023-01-13T23:41:08.515Z,5.80
2023-01-13T23:44:33.737Z,5.91
2023-01-13T23:47:59.136Z,5.91
2023-01-13T23:51:26.762Z,5.52
2023-01-13T23:54:53.149Z,5.56
2023-01-13T23:58:17.953Z,5.13
